sensor_id;sensor_type;location;lat;lon;timestamp;temperature;humidity
10057;DHT22;5068;51.286;7.518;2024-01-30T00:01:24;1.90;64.80
10057;DHT22;5068;51.286;7.518;2024-01-30T00:02:56;1.80;64.80
10057;DHT22;5068;51.286;7.518;2024-01-30T00:04:29;1.80;64.70
10057;DHT22;5068;51.286;7.518;2024-01-30T00:06:03;1.90;65.00
10057;DHT22;5068;51.286;7.518;2024-01-30T00:07:36;1.80;65.00
10057;DHT22;5068;51.286;7.518;2024-01-30T00:09:09;1.80;64.90
10057;DHT22;5068;51.286;7.518;2024-01-30T00:10:42;1.80;65.00
10057;DHT22;5068;51.286;7.518;2024-01-30T00:12:16;1.80;65.00
10057;DHT22;5068;51.286;7.518;2024-01-30T00:13:48;1.70;65.00
10057;DHT22;5068;51.286;7.518;2024-01-30T00:15:21;1.70;65.00
10057;DHT22;5068;51.286;7.518;2024-01-30T00:16:56;1.70;65.10
10057;DHT22;5068;51.286;7.518;2024-01-30T00:18:28;1.70;65.20
10057;DHT22;5068;51.286;7.518;2024-01-30T00:20:01;1.70;65.30
10057;DHT22;5068;51.286;7.518;2024-01-30T00:21:37;1.70;65.40
10057;DHT22;5068;51.286;7.518;2024-01-30T00:23:10;1.70;65.40
10057;DHT22;5068;51.286;7.518;2024-01-30T00:24:42;1.70;65.50
10057;DHT22;5068;51.286;7.518;2024-01-30T00:26:16;1.70;65.50
10057;DHT22;5068;51.286;7.518;2024-01-30T00:27:48;1.70;65.50
10057;DHT22;5068;51.286;7.518;2024-01-30T00:29:21;1.70;65.50
10057;DHT22;5068;51.286;7.518;2024-01-30T00:30:55;1.70;65.50
10057;DHT22;5068;51.286;7.518;2024-01-30T00:32:29;1.70;65.50
10057;DHT22;5068;51.286;7.518;2024-01-30T00:34:01;1.70;65.50
10057;DHT22;5068;51.286;7.518;2024-01-30T00:35:35;1.70;65.40
10057;DHT22;5068;51.286;7.518;2024-01-30T00:37:08;1.70;65.50
10057;DHT22;5068;51.286;7.518;2024-01-30T00:38:41;1.60;65.50
10057;DHT22;5068;51.286;7.518;2024-01-30T00:40:13;1.70;65.60
10057;DHT22;5068;51.286;7.518;2024-01-30T00:41:48;1.70;65.60
10057;DHT22;5068;51.286;7.518;2024-01-30T00:43:20;1.60;65.50
10057;DHT22;5068;51.286;7.518;2024-01-30T00:44:53;1.60;65.50
10057;DHT22;5068;51.286;7.518;2024-01-30T00:46:25;1.60;65.50
10057;DHT22;5068;51.286;7.518;2024-01-30T00:48:00;1.60;65.50
10057;DHT22;5068;51.286;7.518;2024-01-30T00:49:33;1.60;65.50
10057;DHT22;5068;51.286;7.518;2024-01-30T00:51:07;1.60;65.50
10057;DHT22;5068;51.286;7.518;2024-01-30T00:52:39;1.60;65.50
10057;DHT22;5068;51.286;7.518;2024-01-30T00:54:13;1.60;65.50
10057;DHT22;5068;51.286;7.518;2024-01-30T00:55:46;1.60;65.60
10057;DHT22;5068;51.286;7.518;2024-01-30T00:57:19;1.60;66.40
10057;DHT22;5068;51.286;7.518;2024-01-30T00:58:52;1.50;65.60
10057;DHT22;5068;51.286;7.518;2024-01-30T01:00:24;1.50;65.60
10057;DHT22;5068;51.286;7.518;2024-01-30T01:02:01;1.50;65.60
10057;DHT22;5068;51.286;7.518;2024-01-30T01:03:35;1.50;65.50
10057;DHT22;5068;51.286;7.518;2024-01-30T01:05:09;1.50;65.60
10057;DHT22;5068;51.286;7.518;2024-01-30T01:06:41;1.50;65.60
10057;DHT22;5068;51.286;7.518;2024-01-30T01:08:16;1.50;65.60
10057;DHT22;5068;51.286;7.518;2024-01-30T01:09:49;1.40;65.50
10057;DHT22;5068;51.286;7.518;2024-01-30T01:11:22;1.50;65.70
10057;DHT22;5068;51.286;7.518;2024-01-30T01:12:55;1.50;65.70
10057;DHT22;5068;51.286;7.518;2024-01-30T01:14:27;1.50;65.70
10057;DHT22;5068;51.286;7.518;2024-01-30T01:16:00;1.50;65.60
10057;DHT22;5068;51.286;7.518;2024-01-30T01:17:33;1.50;65.70
10057;DHT22;5068;51.286;7.518;2024-01-30T01:19:07;1.40;65.60
10057;DHT22;5068;51.286;7.518;2024-01-30T01:20:40;1.40;65.50
10057;DHT22;5068;51.286;7.518;2024-01-30T01:22:13;1.40;65.60
10057;DHT22;5068;51.286;7.518;2024-01-30T01:23:46;1.40;65.60
10057;DHT22;5068;51.286;7.518;2024-01-30T01:25:18;1.40;65.60
10057;DHT22;5068;51.286;7.518;2024-01-30T01:26:52;1.40;65.60
10057;DHT22;5068;51.286;7.518;2024-01-30T01:28:24;1.40;65.60
10057;DHT22;5068;51.286;7.518;2024-01-30T01:29:57;1.40;65.60
10057;DHT22;5068;51.286;7.518;2024-01-30T01:31:29;1.40;65.50
10057;DHT22;5068;51.286;7.518;2024-01-30T01:33:03;1.40;65.60
10057;DHT22;5068;51.286;7.518;2024-01-30T01:34:37;1.40;65.70
10057;DHT22;5068;51.286;7.518;2024-01-30T01:36:10;1.40;65.60
10057;DHT22;5068;51.286;7.518;2024-01-30T01:37:42;1.30;65.50
10057;DHT22;5068;51.286;7.518;2024-01-30T01:39:15;1.30;65.60
10057;DHT22;5068;51.286;7.518;2024-01-30T01:40:48;1.30;65.70
10057;DHT22;5068;51.286;7.518;2024-01-30T01:42:21;1.30;65.70
10057;DHT22;5068;51.286;7.518;2024-01-30T01:43:54;1.30;65.90
10057;DHT22;5068;51.286;7.518;2024-01-30T01:45:27;1.30;66.00
10057;DHT22;5068;51.286;7.518;2024-01-30T01:47:00;1.30;66.00
10057;DHT22;5068;51.286;7.518;2024-01-30T01:48:34;1.30;66.00
10057;DHT22;5068;51.286;7.518;2024-01-30T01:50:08;1.30;66.10
10057;DHT22;5068;51.286;7.518;2024-01-30T01:51:42;1.30;66.00
10057;DHT22;5068;51.286;7.518;2024-01-30T01:53:17;1.30;66.10
10057;DHT22;5068;51.286;7.518;2024-01-30T01:54:50;1.30;66.00
10057;DHT22;5068;51.286;7.518;2024-01-30T01:56:23;1.30;66.00
10057;DHT22;5068;51.286;7.518;2024-01-30T01:57:57;1.20;65.90
10057;DHT22;5068;51.286;7.518;2024-01-30T01:59:30;1.20;66.70
10057;DHT22;5068;51.286;7.518;2024-01-30T02:01:04;1.20;65.90
10057;DHT22;5068;51.286;7.518;2024-01-30T02:02:37;1.20;66.00
10057;DHT22;5068;51.286;7.518;2024-01-30T02:04:12;1.20;66.10
10057;DHT22;5068;51.286;7.518;2024-01-30T02:05:45;1.20;66.00
10057;DHT22;5068;51.286;7.518;2024-01-30T02:07:20;1.20;66.10
10057;DHT22;5068;51.286;7.518;2024-01-30T02:08:52;1.20;66.00
10057;DHT22;5068;51.286;7.518;2024-01-30T02:10:25;1.20;66.00
10057;DHT22;5068;51.286;7.518;2024-01-30T02:11:58;1.20;66.00
10057;DHT22;5068;51.286;7.518;2024-01-30T02:13:32;1.20;66.20
10057;DHT22;5068;51.286;7.518;2024-01-30T02:15:05;1.20;66.10
10057;DHT22;5068;51.286;7.518;2024-01-30T02:16:39;1.20;66.30
10057;DHT22;5068;51.286;7.518;2024-01-30T02:18:12;1.20;66.20
10057;DHT22;5068;51.286;7.518;2024-01-30T02:19:45;1.20;66.20
10057;DHT22;5068;51.286;7.518;2024-01-30T02:21:19;1.20;66.30
10057;DHT22;5068;51.286;7.518;2024-01-30T02:22:52;1.20;66.40
10057;DHT22;5068;51.286;7.518;2024-01-30T02:24:27;1.20;66.50
10057;DHT22;5068;51.286;7.518;2024-01-30T02:26:01;1.20;66.40
10057;DHT22;5068;51.286;7.518;2024-01-30T02:27:33;1.20;66.40
10057;DHT22;5068;51.286;7.518;2024-01-30T02:29:06;1.20;66.40
10057;DHT22;5068;51.286;7.518;2024-01-30T02:30:38;1.20;66.50
10057;DHT22;5068;51.286;7.518;2024-01-30T02:32:12;1.20;66.60
10057;DHT22;5068;51.286;7.518;2024-01-30T02:33:44;1.10;66.40
10057;DHT22;5068;51.286;7.518;2024-01-30T02:35:17;1.10;66.40
10057;DHT22;5068;51.286;7.518;2024-01-30T02:36:51;1.10;66.30
10057;DHT22;5068;51.286;7.518;2024-01-30T02:38:24;1.10;66.60
10057;DHT22;5068;51.286;7.518;2024-01-30T02:39:58;1.20;66.70
10057;DHT22;5068;51.286;7.518;2024-01-30T02:41:31;1.10;66.70
10057;DHT22;5068;51.286;7.518;2024-01-30T02:43:04;1.10;66.80
10057;DHT22;5068;51.286;7.518;2024-01-30T02:44:38;1.10;67.00
10057;DHT22;5068;51.286;7.518;2024-01-30T02:46:10;1.10;66.80
10057;DHT22;5068;51.286;7.518;2024-01-30T02:47:43;1.10;66.80
10057;DHT22;5068;51.286;7.518;2024-01-30T02:49:15;1.10;66.80
10057;DHT22;5068;51.286;7.518;2024-01-30T02:50:49;1.10;66.80
10057;DHT22;5068;51.286;7.518;2024-01-30T02:52:22;1.10;67.60
10057;DHT22;5068;51.286;7.518;2024-01-30T02:53:56;1.10;66.80
10057;DHT22;5068;51.286;7.518;2024-01-30T02:55:29;1.10;66.80
10057;DHT22;5068;51.286;7.518;2024-01-30T02:57:02;1.10;66.80
10057;DHT22;5068;51.286;7.518;2024-01-30T02:58:35;1.10;66.90
10057;DHT22;5068;51.286;7.518;2024-01-30T03:00:09;1.10;67.10
10057;DHT22;5068;51.286;7.518;2024-01-30T03:01:43;1.10;67.20
10057;DHT22;5068;51.286;7.518;2024-01-30T03:03:16;1.10;67.30
10057;DHT22;5068;51.286;7.518;2024-01-30T03:04:49;1.10;67.30
10057;DHT22;5068;51.286;7.518;2024-01-30T03:06:21;1.10;67.40
10057;DHT22;5068;51.286;7.518;2024-01-30T03:07:56;1.10;67.40
10057;DHT22;5068;51.286;7.518;2024-01-30T03:09:28;1.00;67.40
10057;DHT22;5068;51.286;7.518;2024-01-30T03:11:02;1.10;67.50
10057;DHT22;5068;51.286;7.518;2024-01-30T03:12:34;1.10;67.60
10057;DHT22;5068;51.286;7.518;2024-01-30T03:14:07;1.10;67.60
10057;DHT22;5068;51.286;7.518;2024-01-30T03:15:42;1.20;67.70
10057;DHT22;5068;51.286;7.518;2024-01-30T03:17:16;1.20;67.70
10057;DHT22;5068;51.286;7.518;2024-01-30T03:18:48;1.20;67.70
10057;DHT22;5068;51.286;7.518;2024-01-30T03:20:21;1.20;67.70
10057;DHT22;5068;51.286;7.518;2024-01-30T03:21:53;1.20;67.80
10057;DHT22;5068;51.286;7.518;2024-01-30T03:23:28;1.20;67.80
10057;DHT22;5068;51.286;7.518;2024-01-30T03:25:01;1.20;67.80
10057;DHT22;5068;51.286;7.518;2024-01-30T03:26:34;1.20;67.80
10057;DHT22;5068;51.286;7.518;2024-01-30T03:28:06;1.20;67.80
10057;DHT22;5068;51.286;7.518;2024-01-30T03:29:39;1.20;67.80
10057;DHT22;5068;51.286;7.518;2024-01-30T03:31:15;1.20;67.80
10057;DHT22;5068;51.286;7.518;2024-01-30T03:32:49;1.20;67.80
10057;DHT22;5068;51.286;7.518;2024-01-30T03:34:22;1.20;67.80
10057;DHT22;5068;51.286;7.518;2024-01-30T03:35:54;1.20;67.70
10057;DHT22;5068;51.286;7.518;2024-01-30T03:37:28;1.20;67.60
10057;DHT22;5068;51.286;7.518;2024-01-30T03:39:02;1.20;67.70
10057;DHT22;5068;51.286;7.518;2024-01-30T03:40:35;1.20;67.80
10057;DHT22;5068;51.286;7.518;2024-01-30T03:42:07;1.20;67.70
10057;DHT22;5068;51.286;7.518;2024-01-30T03:43:40;1.20;67.80
10057;DHT22;5068;51.286;7.518;2024-01-30T03:45:13;1.20;67.80
10057;DHT22;5068;51.286;7.518;2024-01-30T03:46:46;1.20;67.90
10057;DHT22;5068;51.286;7.518;2024-01-30T03:48:19;1.30;67.90
10057;DHT22;5068;51.286;7.518;2024-01-30T03:49:54;1.30;68.10
10057;DHT22;5068;51.286;7.518;2024-01-30T03:51:27;1.30;68.00
10057;DHT22;5068;51.286;7.518;2024-01-30T03:52:59;1.30;68.10
10057;DHT22;5068;51.286;7.518;2024-01-30T03:54:33;1.30;68.10
10057;DHT22;5068;51.286;7.518;2024-01-30T03:56:06;1.30;68.10
10057;DHT22;5068;51.286;7.518;2024-01-30T03:57:39;1.30;68.30
10057;DHT22;5068;51.286;7.518;2024-01-30T03:59:12;1.30;68.20
10057;DHT22;5068;51.286;7.518;2024-01-30T04:00:45;1.30;68.30
10057;DHT22;5068;51.286;7.518;2024-01-30T04:02:18;1.30;68.30
10057;DHT22;5068;51.286;7.518;2024-01-30T04:03:50;1.30;68.30
10057;DHT22;5068;51.286;7.518;2024-01-30T04:05:24;1.30;68.30
10057;DHT22;5068;51.286;7.518;2024-01-30T04:06:57;1.30;68.30
10057;DHT22;5068;51.286;7.518;2024-01-30T04:08:29;1.30;68.30
10057;DHT22;5068;51.286;7.518;2024-01-30T04:10:05;1.30;68.30
10057;DHT22;5068;51.286;7.518;2024-01-30T04:11:38;1.30;68.40
10057;DHT22;5068;51.286;7.518;2024-01-30T04:13:11;1.30;68.30
10057;DHT22;5068;51.286;7.518;2024-01-30T04:14:43;1.30;68.30
10057;DHT22;5068;51.286;7.518;2024-01-30T04:16:20;1.40;68.40
10057;DHT22;5068;51.286;7.518;2024-01-30T04:17:53;1.40;68.50
10057;DHT22;5068;51.286;7.518;2024-01-30T04:19:27;1.40;68.40
10057;DHT22;5068;51.286;7.518;2024-01-30T04:20:59;1.30;68.30
10057;DHT22;5068;51.286;7.518;2024-01-30T04:22:32;1.40;68.40
10057;DHT22;5068;51.286;7.518;2024-01-30T04:24:05;1.30;68.30
10057;DHT22;5068;51.286;7.518;2024-01-30T04:25:40;1.40;69.30
10057;DHT22;5068;51.286;7.518;2024-01-30T04:27:12;1.40;68.50
10057;DHT22;5068;51.286;7.518;2024-01-30T04:28:45;1.40;68.50
10057;DHT22;5068;51.286;7.518;2024-01-30T04:30:18;1.40;68.60
10057;DHT22;5068;51.286;7.518;2024-01-30T04:31:51;1.40;68.60
10057;DHT22;5068;51.286;7.518;2024-01-30T04:33:24;1.40;68.60
10057;DHT22;5068;51.286;7.518;2024-01-30T04:34:57;1.40;68.70
10057;DHT22;5068;51.286;7.518;2024-01-30T04:36:31;1.40;68.60
10057;DHT22;5068;51.286;7.518;2024-01-30T04:38:04;1.40;68.60
10057;DHT22;5068;51.286;7.518;2024-01-30T04:39:36;1.40;68.60
10057;DHT22;5068;51.286;7.518;2024-01-30T04:41:11;1.40;68.60
10057;DHT22;5068;51.286;7.518;2024-01-30T04:42:43;1.40;68.60
10057;DHT22;5068;51.286;7.518;2024-01-30T04:44:16;1.40;68.60
10057;DHT22;5068;51.286;7.518;2024-01-30T04:45:49;1.50;68.70
10057;DHT22;5068;51.286;7.518;2024-01-30T04:47:23;1.50;68.80
10057;DHT22;5068;51.286;7.518;2024-01-30T04:48:55;1.50;68.70
10057;DHT22;5068;51.286;7.518;2024-01-30T04:50:28;1.50;68.60
10057;DHT22;5068;51.286;7.518;2024-01-30T04:52:01;1.50;68.70
10057;DHT22;5068;51.286;7.518;2024-01-30T04:53:34;1.50;68.80
10057;DHT22;5068;51.286;7.518;2024-01-30T04:55:07;1.50;68.70
10057;DHT22;5068;51.286;7.518;2024-01-30T04:56:41;1.50;68.80
10057;DHT22;5068;51.286;7.518;2024-01-30T04:58:14;1.50;68.70
10057;DHT22;5068;51.286;7.518;2024-01-30T04:59:47;1.50;68.60
10057;DHT22;5068;51.286;7.518;2024-01-30T05:01:20;1.50;68.70
10057;DHT22;5068;51.286;7.518;2024-01-30T05:02:53;1.50;68.70
10057;DHT22;5068;51.286;7.518;2024-01-30T05:04:27;1.50;68.80
10057;DHT22;5068;51.286;7.518;2024-01-30T05:06:00;1.50;68.70
10057;DHT22;5068;51.286;7.518;2024-01-30T05:07:33;1.50;68.70
10057;DHT22;5068;51.286;7.518;2024-01-30T05:09:06;1.50;68.80
10057;DHT22;5068;51.286;7.518;2024-01-30T05:10:39;1.50;68.70
10057;DHT22;5068;51.286;7.518;2024-01-30T05:12:14;1.60;68.90
10057;DHT22;5068;51.286;7.518;2024-01-30T05:13:46;1.50;68.70
10057;DHT22;5068;51.286;7.518;2024-01-30T05:15:20;1.60;68.80
10057;DHT22;5068;51.286;7.518;2024-01-30T05:16:52;1.60;68.80
10057;DHT22;5068;51.286;7.518;2024-01-30T05:18:25;1.60;68.80
10057;DHT22;5068;51.286;7.518;2024-01-30T05:19:58;1.60;68.80
10057;DHT22;5068;51.286;7.518;2024-01-30T05:21:31;1.60;68.80
10057;DHT22;5068;51.286;7.518;2024-01-30T05:23:04;1.60;68.80
10057;DHT22;5068;51.286;7.518;2024-01-30T05:24:37;1.50;68.70
10057;DHT22;5068;51.286;7.518;2024-01-30T05:26:09;1.60;68.80
10057;DHT22;5068;51.286;7.518;2024-01-30T05:27:44;1.50;68.60
10057;DHT22;5068;51.286;7.518;2024-01-30T05:29:16;1.60;68.70
10057;DHT22;5068;51.286;7.518;2024-01-30T05:30:49;1.60;68.70
10057;DHT22;5068;51.286;7.518;2024-01-30T05:32:21;1.60;68.60
10057;DHT22;5068;51.286;7.518;2024-01-30T05:33:55;1.60;68.60
10057;DHT22;5068;51.286;7.518;2024-01-30T05:35:27;1.60;68.60
10057;DHT22;5068;51.286;7.518;2024-01-30T05:37:01;1.60;68.50
10057;DHT22;5068;51.286;7.518;2024-01-30T05:38:33;1.60;68.70
10057;DHT22;5068;51.286;7.518;2024-01-30T05:40:07;1.60;68.60
10057;DHT22;5068;51.286;7.518;2024-01-30T05:41:40;1.50;68.70
10057;DHT22;5068;51.286;7.518;2024-01-30T05:43:15;1.50;68.60
10057;DHT22;5068;51.286;7.518;2024-01-30T05:44:47;1.60;68.90
10057;DHT22;5068;51.286;7.518;2024-01-30T05:46:21;1.50;68.60
10057;DHT22;5068;51.286;7.518;2024-01-30T05:47:56;1.50;68.90
10057;DHT22;5068;51.286;7.518;2024-01-30T05:49:30;1.60;68.80
10057;DHT22;5068;51.286;7.518;2024-01-30T05:51:02;1.60;68.80
10057;DHT22;5068;51.286;7.518;2024-01-30T05:52:37;1.60;68.90
10057;DHT22;5068;51.286;7.518;2024-01-30T05:54:10;1.60;68.80
10057;DHT22;5068;51.286;7.518;2024-01-30T05:55:45;1.60;68.80
10057;DHT22;5068;51.286;7.518;2024-01-30T05:57:18;1.60;68.80
10057;DHT22;5068;51.286;7.518;2024-01-30T05:58:52;1.60;68.80
10057;DHT22;5068;51.286;7.518;2024-01-30T06:00:25;1.60;68.90
10057;DHT22;5068;51.286;7.518;2024-01-30T06:01:57;1.60;68.80
10057;DHT22;5068;51.286;7.518;2024-01-30T06:03:31;1.60;68.80
10057;DHT22;5068;51.286;7.518;2024-01-30T06:05:04;1.60;69.00
10057;DHT22;5068;51.286;7.518;2024-01-30T06:06:37;1.60;69.00
10057;DHT22;5068;51.286;7.518;2024-01-30T06:08:10;1.60;68.90
10057;DHT22;5068;51.286;7.518;2024-01-30T06:09:43;1.60;68.90
10057;DHT22;5068;51.286;7.518;2024-01-30T06:11:15;1.60;68.90
10057;DHT22;5068;51.286;7.518;2024-01-30T06:12:49;1.60;68.80
10057;DHT22;5068;51.286;7.518;2024-01-30T06:14:23;1.60;68.90
10057;DHT22;5068;51.286;7.518;2024-01-30T06:15:56;1.60;68.80
10057;DHT22;5068;51.286;7.518;2024-01-30T06:17:29;1.70;68.90
10057;DHT22;5068;51.286;7.518;2024-01-30T06:19:01;1.70;68.80
10057;DHT22;5068;51.286;7.518;2024-01-30T06:20:35;1.70;68.70
10057;DHT22;5068;51.286;7.518;2024-01-30T06:22:07;1.70;68.70
10057;DHT22;5068;51.286;7.518;2024-01-30T06:23:40;1.70;68.80
10057;DHT22;5068;51.286;7.518;2024-01-30T06:25:13;1.50;68.60
10057;DHT22;5068;51.286;7.518;2024-01-30T06:26:46;1.70;68.90
10057;DHT22;5068;51.286;7.518;2024-01-30T06:28:18;1.70;69.00
10057;DHT22;5068;51.286;7.518;2024-01-30T06:29:53;1.70;69.00
10057;DHT22;5068;51.286;7.518;2024-01-30T06:31:25;1.70;69.10
10057;DHT22;5068;51.286;7.518;2024-01-30T06:32:59;1.70;69.00
10057;DHT22;5068;51.286;7.518;2024-01-30T06:34:31;1.70;69.00
10057;DHT22;5068;51.286;7.518;2024-01-30T06:36:05;1.70;69.00
10057;DHT22;5068;51.286;7.518;2024-01-30T06:37:37;1.70;69.10
10057;DHT22;5068;51.286;7.518;2024-01-30T06:39:11;1.70;69.00
10057;DHT22;5068;51.286;7.518;2024-01-30T06:40:43;1.70;69.10
10057;DHT22;5068;51.286;7.518;2024-01-30T06:42:16;1.70;69.10
10057;DHT22;5068;51.286;7.518;2024-01-30T06:43:49;1.70;69.10
10057;DHT22;5068;51.286;7.518;2024-01-30T06:45:24;1.70;69.10
10057;DHT22;5068;51.286;7.518;2024-01-30T06:46:56;1.70;69.10
10057;DHT22;5068;51.286;7.518;2024-01-30T06:48:29;1.70;69.00
10057;DHT22;5068;51.286;7.518;2024-01-30T06:50:02;1.70;69.00
10057;DHT22;5068;51.286;7.518;2024-01-30T06:51:35;1.80;69.30
10057;DHT22;5068;51.286;7.518;2024-01-30T06:53:08;1.70;69.10
10057;DHT22;5068;51.286;7.518;2024-01-30T06:54:41;1.80;69.20
10057;DHT22;5068;51.286;7.518;2024-01-30T06:56:14;1.80;69.30
10057;DHT22;5068;51.286;7.518;2024-01-30T06:57:46;1.80;69.40
10057;DHT22;5068;51.286;7.518;2024-01-30T06:59:22;1.80;69.50
10057;DHT22;5068;51.286;7.518;2024-01-30T07:00:56;1.80;69.50
10057;DHT22;5068;51.286;7.518;2024-01-30T07:02:29;1.80;69.50
10057;DHT22;5068;51.286;7.518;2024-01-30T07:04:02;1.80;69.50
10057;DHT22;5068;51.286;7.518;2024-01-30T07:05:35;1.90;69.70
10057;DHT22;5068;51.286;7.518;2024-01-30T07:07:08;1.90;69.60
10057;DHT22;5068;51.286;7.518;2024-01-30T07:08:45;1.90;69.70
10057;DHT22;5068;51.286;7.518;2024-01-30T07:10:18;1.90;69.70
10057;DHT22;5068;51.286;7.518;2024-01-30T07:11:51;1.90;69.70
10057;DHT22;5068;51.286;7.518;2024-01-30T07:13:25;1.90;69.70
10057;DHT22;5068;51.286;7.518;2024-01-30T07:14:58;1.90;69.60
10057;DHT22;5068;51.286;7.518;2024-01-30T07:16:33;1.90;69.60
10057;DHT22;5068;51.286;7.518;2024-01-30T07:18:06;1.90;69.60
10057;DHT22;5068;51.286;7.518;2024-01-30T07:19:39;1.90;69.60
10057;DHT22;5068;51.286;7.518;2024-01-30T07:21:12;2.00;69.60
10057;DHT22;5068;51.286;7.518;2024-01-30T07:22:46;1.90;69.50
10057;DHT22;5068;51.286;7.518;2024-01-30T07:24:19;2.00;69.60
10057;DHT22;5068;51.286;7.518;2024-01-30T07:25:52;2.00;69.60
10057;DHT22;5068;51.286;7.518;2024-01-30T07:27:24;2.00;69.70
10057;DHT22;5068;51.286;7.518;2024-01-30T07:28:57;2.00;69.70
10057;DHT22;5068;51.286;7.518;2024-01-30T07:30:29;2.00;69.70
10057;DHT22;5068;51.286;7.518;2024-01-30T07:32:04;1.90;69.70
10057;DHT22;5068;51.286;7.518;2024-01-30T07:33:37;2.00;70.00
10057;DHT22;5068;51.286;7.518;2024-01-30T07:35:10;2.00;70.70
10057;DHT22;5068;51.286;7.518;2024-01-30T07:36:43;2.00;70.10
10057;DHT22;5068;51.286;7.518;2024-01-30T07:38:16;2.00;70.00
10057;DHT22;5068;51.286;7.518;2024-01-30T07:39:48;2.00;70.10
10057;DHT22;5068;51.286;7.518;2024-01-30T07:41:22;2.00;70.10
10057;DHT22;5068;51.286;7.518;2024-01-30T07:42:56;2.00;70.20
10057;DHT22;5068;51.286;7.518;2024-01-30T07:44:29;2.00;70.20
10057;DHT22;5068;51.286;7.518;2024-01-30T07:46:02;2.00;70.20
10057;DHT22;5068;51.286;7.518;2024-01-30T07:47:36;2.00;70.20
10057;DHT22;5068;51.286;7.518;2024-01-30T07:49:09;2.10;70.40
10057;DHT22;5068;51.286;7.518;2024-01-30T07:50:42;2.10;70.50
10057;DHT22;5068;51.286;7.518;2024-01-30T07:52:15;2.10;70.50
10057;DHT22;5068;51.286;7.518;2024-01-30T07:53:47;2.10;70.70
10057;DHT22;5068;51.286;7.518;2024-01-30T07:55:21;2.20;70.80
10057;DHT22;5068;51.286;7.518;2024-01-30T07:56:56;2.20;70.90
10057;DHT22;5068;51.286;7.518;2024-01-30T07:58:29;2.20;70.90
10057;DHT22;5068;51.286;7.518;2024-01-30T08:00:01;2.20;71.00
10057;DHT22;5068;51.286;7.518;2024-01-30T08:01:38;2.20;71.00
10057;DHT22;5068;51.286;7.518;2024-01-30T08:03:11;2.20;70.90
10057;DHT22;5068;51.286;7.518;2024-01-30T08:04:44;2.30;71.10
10057;DHT22;5068;51.286;7.518;2024-01-30T08:06:20;2.30;71.10
10057;DHT22;5068;51.286;7.518;2024-01-30T08:07:54;2.30;71.10
10057;DHT22;5068;51.286;7.518;2024-01-30T08:09:26;2.30;71.10
10057;DHT22;5068;51.286;7.518;2024-01-30T08:10:59;2.40;71.30
10057;DHT22;5068;51.286;7.518;2024-01-30T08:12:32;2.40;71.20
10057;DHT22;5068;51.286;7.518;2024-01-30T08:14:05;2.40;71.30
10057;DHT22;5068;51.286;7.518;2024-01-30T08:15:37;2.50;71.40
10057;DHT22;5068;51.286;7.518;2024-01-30T08:17:10;2.50;71.40
10057;DHT22;5068;51.286;7.518;2024-01-30T08:18:45;2.50;71.40
10057;DHT22;5068;51.286;7.518;2024-01-30T08:20:17;2.50;71.50
10057;DHT22;5068;51.286;7.518;2024-01-30T08:21:52;2.60;71.60
10057;DHT22;5068;51.286;7.518;2024-01-30T08:23:30;2.60;71.60
10057;DHT22;5068;51.286;7.518;2024-01-30T08:25:04;2.60;71.70
10057;DHT22;5068;51.286;7.518;2024-01-30T08:26:36;2.60;71.90
10057;DHT22;5068;51.286;7.518;2024-01-30T08:28:10;2.60;71.80
10057;DHT22;5068;51.286;7.518;2024-01-30T08:29:42;2.70;72.00
10057;DHT22;5068;51.286;7.518;2024-01-30T08:31:16;2.70;72.10
10057;DHT22;5068;51.286;7.518;2024-01-30T08:32:49;2.70;72.20
10057;DHT22;5068;51.286;7.518;2024-01-30T08:34:23;2.80;72.20
10057;DHT22;5068;51.286;7.518;2024-01-30T08:35:56;2.80;72.30
10057;DHT22;5068;51.286;7.518;2024-01-30T08:37:29;2.90;72.70
10057;DHT22;5068;51.286;7.518;2024-01-30T08:39:02;2.90;72.70
10057;DHT22;5068;51.286;7.518;2024-01-30T08:40:37;2.90;72.70
10057;DHT22;5068;51.286;7.518;2024-01-30T08:42:10;2.90;72.60
10057;DHT22;5068;51.286;7.518;2024-01-30T08:43:43;3.00;72.90
10057;DHT22;5068;51.286;7.518;2024-01-30T08:45:16;3.00;73.00
10057;DHT22;5068;51.286;7.518;2024-01-30T08:46:49;3.00;72.90
10057;DHT22;5068;51.286;7.518;2024-01-30T08:48:22;3.10;73.10
10057;DHT22;5068;51.286;7.518;2024-01-30T08:49:58;3.10;73.20
10057;DHT22;5068;51.286;7.518;2024-01-30T08:51:32;3.10;73.20
10057;DHT22;5068;51.286;7.518;2024-01-30T08:53:05;3.20;73.30
10057;DHT22;5068;51.286;7.518;2024-01-30T08:54:38;3.20;73.30
10057;DHT22;5068;51.286;7.518;2024-01-30T08:56:11;3.30;73.40
10057;DHT22;5068;51.286;7.518;2024-01-30T08:57:44;3.30;73.50
10057;DHT22;5068;51.286;7.518;2024-01-30T08:59:17;3.40;73.60
10057;DHT22;5068;51.286;7.518;2024-01-30T09:00:49;3.40;73.60
10057;DHT22;5068;51.286;7.518;2024-01-30T09:02:23;3.50;73.80
10057;DHT22;5068;51.286;7.518;2024-01-30T09:03:57;3.50;73.80
10057;DHT22;5068;51.286;7.518;2024-01-30T09:05:31;3.50;73.80
10057;DHT22;5068;51.286;7.518;2024-01-30T09:07:04;3.60;73.90
10057;DHT22;5068;51.286;7.518;2024-01-30T09:08:38;3.60;73.90
10057;DHT22;5068;51.286;7.518;2024-01-30T09:10:11;3.70;74.20
10057;DHT22;5068;51.286;7.518;2024-01-30T09:11:46;3.70;74.30
10057;DHT22;5068;51.286;7.518;2024-01-30T09:13:20;3.70;74.30
10057;DHT22;5068;51.286;7.518;2024-01-30T09:14:52;3.80;74.50
10057;DHT22;5068;51.286;7.518;2024-01-30T09:16:25;3.80;74.50
10057;DHT22;5068;51.286;7.518;2024-01-30T09:17:57;3.90;74.60
10057;DHT22;5068;51.286;7.518;2024-01-30T09:19:31;3.90;74.60
10057;DHT22;5068;51.286;7.518;2024-01-30T09:21:05;4.00;74.70
10057;DHT22;5068;51.286;7.518;2024-01-30T09:22:38;4.00;75.70
10057;DHT22;5068;51.286;7.518;2024-01-30T09:24:10;4.10;75.10
10057;DHT22;5068;51.286;7.518;2024-01-30T09:25:43;4.10;75.20
10057;DHT22;5068;51.286;7.518;2024-01-30T09:27:16;4.20;75.30
10057;DHT22;5068;51.286;7.518;2024-01-30T09:28:49;4.20;76.10
10057;DHT22;5068;51.286;7.518;2024-01-30T09:30:22;4.30;75.30
10057;DHT22;5068;51.286;7.518;2024-01-30T09:31:55;4.30;75.30
10057;DHT22;5068;51.286;7.518;2024-01-30T09:33:28;4.40;75.60
10057;DHT22;5068;51.286;7.518;2024-01-30T09:35:01;4.40;75.50
10057;DHT22;5068;51.286;7.518;2024-01-30T09:36:34;4.50;75.70
10057;DHT22;5068;51.286;7.518;2024-01-30T09:38:08;4.50;75.90
10057;DHT22;5068;51.286;7.518;2024-01-30T09:39:40;4.50;76.00
10057;DHT22;5068;51.286;7.518;2024-01-30T09:41:13;4.60;76.10
10057;DHT22;5068;51.286;7.518;2024-01-30T09:42:47;4.70;76.30
10057;DHT22;5068;51.286;7.518;2024-01-30T09:44:23;4.70;76.40
10057;DHT22;5068;51.286;7.518;2024-01-30T09:46:02;4.80;76.60
10057;DHT22;5068;51.286;7.518;2024-01-30T09:47:40;4.80;76.70
10057;DHT22;5068;51.286;7.518;2024-01-30T09:49:14;4.90;77.00
10057;DHT22;5068;51.286;7.518;2024-01-30T09:50:52;5.00;77.10
10057;DHT22;5068;51.286;7.518;2024-01-30T09:52:26;5.10;77.40
10057;DHT22;5068;51.286;7.518;2024-01-30T09:54:01;5.10;77.50
10057;DHT22;5068;51.286;7.518;2024-01-30T09:55:36;5.20;77.70
10057;DHT22;5068;51.286;7.518;2024-01-30T09:57:11;5.30;77.90
10057;DHT22;5068;51.286;7.518;2024-01-30T09:58:44;5.40;76.90
10057;DHT22;5068;51.286;7.518;2024-01-30T10:00:17;5.40;76.90
10057;DHT22;5068;51.286;7.518;2024-01-30T10:01:50;5.50;77.10
10057;DHT22;5068;51.286;7.518;2024-01-30T10:03:24;5.60;77.40
10057;DHT22;5068;51.286;7.518;2024-01-30T10:04:57;5.70;77.40
10057;DHT22;5068;51.286;7.518;2024-01-30T10:06:30;5.80;77.50
10057;DHT22;5068;51.286;7.518;2024-01-30T10:08:06;5.80;77.50
10057;DHT22;5068;51.286;7.518;2024-01-30T10:09:40;5.90;77.70